sensor_id;sensor_type;location;lat;lon;timestamp;pressure;altitude;pressure_sealevel;temperature;humidity
51321;BME280;38732;49.556;6.286;2023-04-05T00:00:35;100290.88;;;4.69;64.43
51321;BME280;38732;49.556;6.286;2023-04-05T00:03:03;100285.19;;;4.52;65.08
51321;BME280;38732;49.556;6.286;2023-04-05T00:05:31;100287.28;;;4.64;65.60
51321;BME280;38732;49.556;6.286;2023-04-05T00:08:00;100284.16;;;4.48;65.26
51321;BME280;38732;49.556;6.286;2023-04-05T00:10:29;100277.75;;;4.82;67.64
51321;BME280;38732;49.556;6.286;2023-04-05T00:12:58;100278.41;;;5.01;67.91
51321;BME280;38732;49.556;6.286;2023-04-05T00:15:26;100267.00;;;4.68;65.97
51321;BME280;38732;49.556;6.286;2023-04-05T00:17:54;100263.72;;;4.48;66.38
51321;BME280;38732;49.556;6.286;2023-04-05T00:20:23;100273.56;;;4.62;65.88
51321;BME280;38732;49.556;6.286;2023-04-05T00:22:51;100272.00;;;4.65;65.51
51321;BME280;38732;49.556;6.286;2023-04-05T00:25:19;100279.31;;;4.79;63.84
51321;BME280;38732;49.556;6.286;2023-04-05T00:27:47;100283.03;;;4.40;65.36
51321;BME280;38732;49.556;6.286;2023-04-05T00:30:16;100280.56;;;4.43;64.63
51321;BME280;38732;49.556;6.286;2023-04-05T00:32:46;100289.06;;;4.42;64.62
51321;BME280;38732;49.556;6.286;2023-04-05T00:35:15;100291.72;;;4.45;64.66
51321;BME280;38732;49.556;6.286;2023-04-05T00:37:44;100285.00;;;4.47;64.95
51321;BME280;38732;49.556;6.286;2023-04-05T00:40:12;100292.84;;;4.52;64.83
51321;BME280;38732;49.556;6.286;2023-04-05T00:42:40;100298.03;;;4.10;65.20
51321;BME280;38732;49.556;6.286;2023-04-05T00:45:08;100283.75;;;4.15;65.41
51321;BME280;38732;49.556;6.286;2023-04-05T00:47:37;100284.97;;;4.02;64.79
51321;BME280;38732;49.556;6.286;2023-04-05T00:50:06;100279.38;;;3.90;65.35
51321;BME280;38732;49.556;6.286;2023-04-05T00:52:35;100280.91;;;4.07;67.95
51321;BME280;38732;49.556;6.286;2023-04-05T00:55:04;100277.66;;;4.11;67.30
51321;BME280;38732;49.556;6.286;2023-04-05T00:57:34;100273.00;;;4.01;66.65
51321;BME280;38732;49.556;6.286;2023-04-05T01:00:03;100265.75;;;4.12;66.75
51321;BME280;38732;49.556;6.286;2023-04-05T01:02:33;100273.53;;;4.15;68.60
51321;BME280;38732;49.556;6.286;2023-04-05T01:05:13;100275.44;;;4.21;66.59
51321;BME280;38732;49.556;6.286;2023-04-05T01:07:55;100267.13;;;4.26;67.77
51321;BME280;38732;49.556;6.286;2023-04-05T01:10:31;100273.19;;;4.28;68.06
51321;BME280;38732;49.556;6.286;2023-04-05T01:13:02;100269.63;;;4.02;66.98
51321;BME280;38732;49.556;6.286;2023-04-05T01:15:30;100271.97;;;3.75;65.96
51321;BME280;38732;49.556;6.286;2023-04-05T01:17:58;100266.34;;;3.84;67.64
51321;BME280;38732;49.556;6.286;2023-04-05T01:20:32;100267.56;;;4.15;69.78
51321;BME280;38732;49.556;6.286;2023-04-05T01:23:11;100258.97;;;3.92;67.03
51321;BME280;38732;49.556;6.286;2023-04-05T01:25:56;100257.44;;;3.53;67.05
51321;BME280;38732;49.556;6.286;2023-04-05T01:28:55;100248.00;;;3.51;67.15
51321;BME280;38732;49.556;6.286;2023-04-05T01:31:47;100253.03;;;3.70;69.13
51321;BME280;38732;49.556;6.286;2023-04-05T01:34:49;100255.38;;;3.86;70.53
51321;BME280;38732;49.556;6.286;2023-04-05T01:37:19;100254.75;;;3.92;69.18
51321;BME280;38732;49.556;6.286;2023-04-05T01:39:50;100250.41;;;3.48;68.45
51321;BME280;38732;49.556;6.286;2023-04-05T01:42:23;100250.38;;;3.27;66.25
51321;BME280;38732;49.556;6.286;2023-04-05T01:44:52;100244.56;;;3.50;67.15
51321;BME280;38732;49.556;6.286;2023-04-05T01:47:21;100248.72;;;3.48;67.28
51321;BME280;38732;49.556;6.286;2023-04-05T01:49:49;100249.16;;;3.80;70.33
51321;BME280;38732;49.556;6.286;2023-04-05T01:52:18;100250.84;;;3.58;67.02
51321;BME280;38732;49.556;6.286;2023-04-05T01:54:46;100258.09;;;3.48;67.66
51321;BME280;38732;49.556;6.286;2023-04-05T01:57:14;100239.38;;;3.28;66.88
51321;BME280;38732;49.556;6.286;2023-04-05T01:59:42;100233.81;;;3.17;67.76
51321;BME280;38732;49.556;6.286;2023-04-05T02:02:10;100237.16;;;3.35;66.72
51321;BME280;38732;49.556;6.286;2023-04-05T02:04:39;100228.44;;;3.30;67.58
51321;BME280;38732;49.556;6.286;2023-04-05T02:07:07;100231.97;;;3.34;67.13
51321;BME280;38732;49.556;6.286;2023-04-05T02:09:35;100226.53;;;3.05;66.84
51321;BME280;38732;49.556;6.286;2023-04-05T02:12:03;100231.69;;;3.07;67.62
51321;BME280;38732;49.556;6.286;2023-04-05T02:14:31;100224.25;;;2.92;67.42
51321;BME280;38732;49.556;6.286;2023-04-05T02:17:00;100222.13;;;3.22;68.10
51321;BME280;38732;49.556;6.286;2023-04-05T02:19:28;100227.66;;;3.12;67.44
51321;BME280;38732;49.556;6.286;2023-04-05T02:21:56;100217.41;;;3.10;67.74
51321;BME280;38732;49.556;6.286;2023-04-05T02:24:24;100215.28;;;3.21;69.11
51321;BME280;38732;49.556;6.286;2023-04-05T02:26:52;100226.38;;;3.02;68.19
51321;BME280;38732;49.556;6.286;2023-04-05T02:29:20;100220.31;;;2.79;68.67
51321;BME280;38732;49.556;6.286;2023-04-05T02:31:49;100224.47;;;2.96;67.46
51321;BME280;38732;49.556;6.286;2023-04-05T02:34:17;100218.38;;;2.73;67.44
51321;BME280;38732;49.556;6.286;2023-04-05T02:36:45;100211.88;;;2.80;68.39
51321;BME280;38732;49.556;6.286;2023-04-05T02:39:13;100220.59;;;2.85;68.73
51321;BME280;38732;49.556;6.286;2023-04-05T02:41:41;100234.06;;;2.63;69.50
51321;BME280;38732;49.556;6.286;2023-04-05T02:44:10;100221.59;;;2.50;68.89
51321;BME280;38732;49.556;6.286;2023-04-05T02:46:38;100222.00;;;2.78;68.41
51321;BME280;38732;49.556;6.286;2023-04-05T02:49:06;100227.97;;;2.40;68.27
51321;BME280;38732;49.556;6.286;2023-04-05T02:51:34;100228.84;;;2.41;68.33
51321;BME280;38732;49.556;6.286;2023-04-05T02:54:03;100232.66;;;2.50;69.05
51321;BME280;38732;49.556;6.286;2023-04-05T02:56:31;100242.47;;;2.23;68.17
51321;BME280;38732;49.556;6.286;2023-04-05T02:58:59;100225.34;;;2.38;68.98
51321;BME280;38732;49.556;6.286;2023-04-05T03:01:27;100232.66;;;2.13;69.23
51321;BME280;38732;49.556;6.286;2023-04-05T03:03:55;100225.28;;;2.19;69.50
51321;BME280;38732;49.556;6.286;2023-04-05T03:06:24;100225.16;;;2.16;67.59
51321;BME280;38732;49.556;6.286;2023-04-05T03:08:52;100229.19;;;2.11;69.20
51321;BME280;38732;49.556;6.286;2023-04-05T03:11:20;100217.47;;;2.34;70.06
51321;BME280;38732;49.556;6.286;2023-04-05T03:13:48;100220.53;;;2.45;69.84
51321;BME280;38732;49.556;6.286;2023-04-05T03:16:16;100219.16;;;2.33;68.74
51321;BME280;38732;49.556;6.286;2023-04-05T03:18:45;100226.53;;;2.27;68.99
51321;BME280;38732;49.556;6.286;2023-04-05T03:21:13;100224.28;;;2.15;69.07
51321;BME280;38732;49.556;6.286;2023-04-05T03:23:41;100221.44;;;2.09;70.53
51321;BME280;38732;49.556;6.286;2023-04-05T03:26:09;100228.72;;;2.20;69.28
51321;BME280;38732;49.556;6.286;2023-04-05T03:28:37;100231.13;;;2.16;69.53
51321;BME280;38732;49.556;6.286;2023-04-05T03:31:06;100230.56;;;2.04;70.22
51321;BME280;38732;49.556;6.286;2023-04-05T03:33:34;100232.47;;;2.08;70.96
51321;BME280;38732;49.556;6.286;2023-04-05T03:36:03;100232.22;;;2.22;70.31
51321;BME280;38732;49.556;6.286;2023-04-05T03:38:32;100235.34;;;2.16;69.94
51321;BME280;38732;49.556;6.286;2023-04-05T03:41:01;100230.38;;;2.19;70.09
51321;BME280;38732;49.556;6.286;2023-04-05T03:43:29;100230.84;;;2.10;69.69
51321;BME280;38732;49.556;6.286;2023-04-05T03:45:57;100229.78;;;2.05;70.03
51321;BME280;38732;49.556;6.286;2023-04-05T03:48:25;100226.16;;;2.20;70.70
51321;BME280;38732;49.556;6.286;2023-04-05T03:50:54;100226.50;;;2.45;71.46
51321;BME280;38732;49.556;6.286;2023-04-05T03:53:22;100229.22;;;2.30;70.12
51321;BME280;38732;49.556;6.286;2023-04-05T03:55:50;100223.84;;;2.24;70.15
51321;BME280;38732;49.556;6.286;2023-04-05T03:58:18;100231.25;;;2.20;70.93
51321;BME280;38732;49.556;6.286;2023-04-05T04:00:47;100240.22;;;2.11;69.51
51321;BME280;38732;49.556;6.286;2023-04-05T04:03:15;100238.03;;;2.19;69.48
51321;BME280;38732;49.556;6.286;2023-04-05T04:05:43;100233.19;;;2.06;70.60
51321;BME280;38732;49.556;6.286;2023-04-05T04:08:11;100227.38;;;1.90;69.76
51321;BME280;38732;49.556;6.286;2023-04-05T04:10:39;100222.44;;;1.76;70.33
51321;BME280;38732;49.556;6.286;2023-04-05T04:13:08;100226.06;;;1.81;70.04
51321;BME280;38732;49.556;6.286;2023-04-05T04:15:36;100234.72;;;1.84;69.00
51321;BME280;38732;49.556;6.286;2023-04-05T04:18:04;100222.50;;;1.95;69.94
51321;BME280;38732;49.556;6.286;2023-04-05T04:20:32;100223.28;;;1.94;68.80
51321;BME280;38732;49.556;6.286;2023-04-05T04:23:00;100226.34;;;1.87;70.41
51321;BME280;38732;49.556;6.286;2023-04-05T04:25:29;100230.44;;;1.83;68.40
51321;BME280;38732;49.556;6.286;2023-04-05T04:27:57;100229.59;;;1.65;70.04
51321;BME280;38732;49.556;6.286;2023-04-05T04:30:25;100233.34;;;1.55;69.93
51321;BME280;38732;49.556;6.286;2023-04-05T04:32:54;100234.00;;;1.69;71.43
51321;BME280;38732;49.556;6.286;2023-04-05T04:35:26;100229.34;;;1.60;70.21
51321;BME280;38732;49.556;6.286;2023-04-05T04:37:59;100235.09;;;1.74;71.58
51321;BME280;38732;49.556;6.286;2023-04-05T04:40:33;100229.63;;;1.66;71.00
51321;BME280;38732;49.556;6.286;2023-04-05T04:43:02;100240.63;;;1.83;72.50
51321;BME280;38732;49.556;6.286;2023-04-05T04:45:31;100230.44;;;1.83;71.43
51321;BME280;38732;49.556;6.286;2023-04-05T04:47:59;100232.25;;;1.68;70.86
51321;BME280;38732;49.556;6.286;2023-04-05T04:50:27;100228.19;;;1.71;71.63
51321;BME280;38732;49.556;6.286;2023-04-05T04:52:57;100225.84;;;1.76;71.26
51321;BME280;38732;49.556;6.286;2023-04-05T04:55:26;100224.03;;;1.91;71.18
51321;BME280;38732;49.556;6.286;2023-04-05T04:57:55;100224.13;;;1.75;69.46
51321;BME280;38732;49.556;6.286;2023-04-05T05:00:24;100220.63;;;1.55;71.47
51321;BME280;38732;49.556;6.286;2023-04-05T05:02:52;100231.53;;;1.53;70.52
51321;BME280;38732;49.556;6.286;2023-04-05T05:05:20;100220.91;;;1.79;69.77
51321;BME280;38732;49.556;6.286;2023-04-05T05:07:49;100229.59;;;1.65;69.91
51321;BME280;38732;49.556;6.286;2023-04-05T05:10:17;100230.06;;;1.76;71.36
51321;BME280;38732;49.556;6.286;2023-04-05T05:12:46;100228.31;;;1.75;70.48
51321;BME280;38732;49.556;6.286;2023-04-05T05:15:14;100228.63;;;1.81;71.32
51321;BME280;38732;49.556;6.286;2023-04-05T05:17:42;100234.59;;;1.81;70.95
51321;BME280;38732;49.556;6.286;2023-04-05T05:20:11;100226.88;;;1.98;70.66
51321;BME280;38732;49.556;6.286;2023-04-05T05:22:40;100226.06;;;1.81;70.98
51321;BME280;38732;49.556;6.286;2023-04-05T05:25:08;100227.94;;;1.67;69.63
51321;BME280;38732;49.556;6.286;2023-04-05T05:27:37;100235.91;;;1.73;70.49
51321;BME280;38732;49.556;6.286;2023-04-05T05:30:06;100234.34;;;1.77;69.59
51321;BME280;38732;49.556;6.286;2023-04-05T05:32:34;100240.63;;;1.83;71.35
51321;BME280;38732;49.556;6.286;2023-04-05T05:35:02;100237.13;;;1.99;71.41
51321;BME280;38732;49.556;6.286;2023-04-05T05:37:31;100235.59;;;2.03;71.56
51321;BME280;38732;49.556;6.286;2023-04-05T05:40:01;100225.47;;;1.86;70.30
51321;BME280;38732;49.556;6.286;2023-04-05T05:42:30;100225.44;;;1.85;71.37
51321;BME280;38732;49.556;6.286;2023-04-05T05:45:03;100231.84;;;2.14;74.11
51321;BME280;38732;49.556;6.286;2023-04-05T05:47:31;100234.97;;;2.26;72.16
51321;BME280;38732;49.556;6.286;2023-04-05T05:49:59;100238.13;;;2.21;71.73
51321;BME280;38732;49.556;6.286;2023-04-05T05:52:27;100225.25;;;2.00;71.73
51321;BME280;38732;49.556;6.286;2023-04-05T05:54:56;100224.91;;;2.10;72.93
51321;BME280;38732;49.556;6.286;2023-04-05T05:57:24;100230.84;;;2.10;73.18
51321;BME280;38732;49.556;6.286;2023-04-05T05:59:52;100236.22;;;2.16;73.00
51321;BME280;38732;49.556;6.286;2023-04-05T06:02:20;100238.72;;;2.15;71.84
51321;BME280;38732;49.556;6.286;2023-04-05T06:04:49;100237.91;;;2.16;72.88
51321;BME280;38732;49.556;6.286;2023-04-05T06:07:17;100234.69;;;2.20;72.49
51321;BME280;38732;49.556;6.286;2023-04-05T06:09:45;100241.75;;;2.26;73.03
51321;BME280;38732;49.556;6.286;2023-04-05T06:12:13;100234.13;;;2.45;73.47
51321;BME280;38732;49.556;6.286;2023-04-05T06:14:41;100230.72;;;2.64;73.25
51321;BME280;38732;49.556;6.286;2023-04-05T06:17:09;100229.97;;;2.67;73.75
51321;BME280;38732;49.556;6.286;2023-04-05T06:19:38;100230.44;;;2.58;73.94
51321;BME280;38732;49.556;6.286;2023-04-05T06:22:06;100224.13;;;2.69;73.34
51321;BME280;38732;49.556;6.286;2023-04-05T06:24:34;100227.00;;;2.77;73.89
51321;BME280;38732;49.556;6.286;2023-04-05T06:27:02;100226.88;;;2.74;72.78
51321;BME280;38732;49.556;6.286;2023-04-05T06:29:31;100228.13;;;2.63;72.81
51321;BME280;38732;49.556;6.286;2023-04-05T06:31:59;100220.69;;;3.08;73.58
51321;BME280;38732;49.556;6.286;2023-04-05T06:34:27;100218.84;;;3.24;73.59
51321;BME280;38732;49.556;6.286;2023-04-05T06:36:55;100224.63;;;3.20;69.68
51321;BME280;38732;49.556;6.286;2023-04-05T06:39:23;100216.03;;;3.18;70.96
51321;BME280;38732;49.556;6.286;2023-04-05T06:41:52;100215.66;;;3.51;72.80
51321;BME280;38732;49.556;6.286;2023-04-05T06:44:20;100215.00;;;3.55;71.59
51321;BME280;38732;49.556;6.286;2023-04-05T06:46:48;100221.19;;;3.62;70.92
51321;BME280;38732;49.556;6.286;2023-04-05T06:49:16;100211.09;;;3.86;73.10
51321;BME280;38732;49.556;6.286;2023-04-05T06:51:44;100216.31;;;3.89;70.00
51321;BME280;38732;49.556;6.286;2023-04-05T06:54:13;100214.66;;;3.89;68.72
51321;BME280;38732;49.556;6.286;2023-04-05T06:56:41;100214.19;;;4.00;68.44
51321;BME280;38732;49.556;6.286;2023-04-05T06:59:09;100213.75;;;4.11;69.20
51321;BME280;38732;49.556;6.286;2023-04-05T07:01:37;100215.22;;;4.27;68.43
51321;BME280;38732;49.556;6.286;2023-04-05T07:04:05;100221.47;;;4.36;68.71
51321;BME280;38732;49.556;6.286;2023-04-05T07:06:34;100209.97;;;4.47;68.99
51321;BME280;38732;49.556;6.286;2023-04-05T07:09:02;100215.91;;;4.70;69.88
51321;BME280;38732;49.556;6.286;2023-04-05T07:11:30;100209.47;;;4.81;67.91
51321;BME280;38732;49.556;6.286;2023-04-05T07:13:59;100205.56;;;4.91;66.69
51321;BME280;38732;49.556;6.286;2023-04-05T07:16:27;100204.69;;;4.90;66.83
51321;BME280;38732;49.556;6.286;2023-04-05T07:18:55;100204.09;;;4.97;66.62
51321;BME280;38732;49.556;6.286;2023-04-05T07:21:24;100206.97;;;5.32;66.82
51321;BME280;38732;49.556;6.286;2023-04-05T07:23:52;100198.91;;;5.47;64.68
51321;BME280;38732;49.556;6.286;2023-04-05T07:26:20;100195.59;;;5.51;63.55
51321;BME280;38732;49.556;6.286;2023-04-05T07:28:48;100196.94;;;5.66;64.23
51321;BME280;38732;49.556;6.286;2023-04-05T07:31:17;100193.47;;;5.92;63.14
51321;BME280;38732;49.556;6.286;2023-04-05T07:33:45;100181.16;;;6.08;60.21
51321;BME280;38732;49.556;6.286;2023-04-05T07:36:13;100183.31;;;6.22;59.27
51321;BME280;38732;49.556;6.286;2023-04-05T07:38:41;100179.38;;;6.35;60.22
51321;BME280;38732;49.556;6.286;2023-04-05T07:41:10;100177.53;;;6.61;59.65
51321;BME280;38732;49.556;6.286;2023-04-05T07:43:38;100181.22;;;6.71;60.24
51321;BME280;38732;49.556;6.286;2023-04-05T07:46:06;100181.59;;;6.85;61.16
51321;BME280;38732;49.556;6.286;2023-04-05T07:48:34;100177.72;;;7.01;58.35
51321;BME280;38732;49.556;6.286;2023-04-05T07:51:07;100180.47;;;7.07;57.24
51321;BME280;38732;49.556;6.286;2023-04-05T07:53:36;100184.09;;;7.15;59.27
51321;BME280;38732;49.556;6.286;2023-04-05T07:56:08;100187.84;;;7.28;58.08
51321;BME280;38732;49.556;6.286;2023-04-05T07:58:37;100182.28;;;7.46;57.93
51321;BME280;38732;49.556;6.286;2023-04-05T08:01:08;100177.31;;;7.53;56.42
51321;BME280;38732;49.556;6.286;2023-04-05T08:03:38;100176.06;;;7.72;55.29
51321;BME280;38732;49.556;6.286;2023-04-05T08:06:11;100172.63;;;7.72;54.87
51321;BME280;38732;49.556;6.286;2023-04-05T08:08:39;100172.00;;;7.82;55.64
51321;BME280;38732;49.556;6.286;2023-04-05T08:11:08;100173.88;;;7.91;53.42
51321;BME280;38732;49.556;6.286;2023-04-05T08:13:37;100166.50;;;8.05;51.64
51321;BME280;38732;49.556;6.286;2023-04-05T08:16:09;100165.94;;;8.21;51.93
51321;BME280;38732;49.556;6.286;2023-04-05T08:18:37;100166.91;;;8.25;50.69
51321;BME280;38732;49.556;6.286;2023-04-05T08:21:06;100169.09;;;8.47;49.57
51321;BME280;38732;49.556;6.286;2023-04-05T08:23:34;100167.44;;;8.51;49.65
51321;BME280;38732;49.556;6.286;2023-04-05T08:26:02;100165.25;;;8.71;48.03
51321;BME280;38732;49.556;6.286;2023-04-05T08:28:31;100171.34;;;8.76;51.13
51321;BME280;38732;49.556;6.286;2023-04-05T08:30:59;100167.09;;;8.78;51.58
51321;BME280;38732;49.556;6.286;2023-04-05T08:33:27;100163.13;;;8.95;50.40
51321;BME280;38732;49.556;6.286;2023-04-05T08:35:56;100170.19;;;9.05;50.01
51321;BME280;38732;49.556;6.286;2023-04-05T08:38:24;100163.88;;;9.40;48.05
51321;BME280;38732;49.556;6.286;2023-04-05T08:40:52;100162.16;;;9.39;48.09
51321;BME280;38732;49.556;6.286;2023-04-05T08:43:46;100163.81;;;9.35;49.12
51321;BME280;38732;49.556;6.286;2023-04-05T08:46:21;100165.59;;;9.41;50.98
51321;BME280;38732;49.556;6.286;2023-04-05T08:48:49;100154.84;;;9.66;46.93
51321;BME280;38732;49.556;6.286;2023-04-05T08:51:19;100155.16;;;9.89;49.37
51321;BME280;38732;49.556;6.286;2023-04-05T08:53:48;100160.50;;;10.03;48.06
51321;BME280;38732;49.556;6.286;2023-04-05T08:56:24;100150.66;;;10.37;44.10
51321;BME280;38732;49.556;6.286;2023-04-05T08:59:08;100156.47;;;10.22;44.98
51321;BME280;38732;49.556;6.286;2023-04-05T09:01:42;100154.13;;;10.39;45.47
51321;BME280;38732;49.556;6.286;2023-04-05T09:04:16;100155.19;;;10.56;45.88
51321;BME280;38732;49.556;6.286;2023-04-05T09:06:46;100149.16;;;10.57;43.95
51321;BME280;38732;49.556;6.286;2023-04-05T09:09:17;100147.88;;;11.01;42.80
51321;BME280;38732;49.556;6.286;2023-04-05T09:11:47;100145.28;;;11.02;43.24
51321;BME280;38732;49.556;6.286;2023-04-05T09:14:16;100146.38;;;11.26;40.97
51321;BME280;38732;49.556;6.286;2023-04-05T09:16:45;100146.16;;;11.01;45.14
51321;BME280;38732;49.556;6.286;2023-04-05T09:19:13;100146.47;;;11.40;41.47
51321;BME280;38732;49.556;6.286;2023-04-05T09:21:57;100143.28;;;11.73;38.89
51321;BME280;38732;49.556;6.286;2023-04-05T09:27:11;100144.16;;;11.78;43.06
51321;BME280;38732;49.556;6.286;2023-04-05T09:29:42;100141.69;;;11.91;40.63
51321;BME280;38732;49.556;6.286;2023-04-05T09:32:11;100135.56;;;11.85;42.33
51321;BME280;38732;49.556;6.286;2023-04-05T09:34:41;100137.41;;;12.05;40.93
51321;BME280;38732;49.556;6.286;2023-04-05T09:37:15;100138.44;;;12.45;39.43
51321;BME280;38732;49.556;6.286;2023-04-05T09:39:45;100137.63;;;12.59;38.92
51321;BME280;38732;49.556;6.286;2023-04-05T09:42:14;100139.34;;;12.50;39.99
51321;BME280;38732;49.556;6.286;2023-04-05T09:44:56;100132.44;;;12.60;40.82
51321;BME280;38732;49.556;6.286;2023-04-05T09:47:26;100129.06;;;13.06;37.12
51321;BME280;38732;49.556;6.286;2023-04-05T09:49:56;100136.00;;;13.13;38.74
51321;BME280;38732;49.556;6.286;2023-04-05T09:52:27;100135.13;;;13.03;39.06
51321;BME280;38732;49.556;6.286;2023-04-05T09:54:57;100129.09;;;13.33;40.55
51321;BME280;38732;49.556;6.286;2023-04-05T09:57:26;100128.22;;;13.47;37.47
51321;BME280;38732;49.556;6.286;2023-04-05T09:59:55;100126.50;;;13.46;36.36
51321;BME280;38732;49.556;6.286;2023-04-05T10:02:24;100134.22;;;13.63;36.71
51321;BME280;38732;49.556;6.286;2023-04-05T10:04:52;100129.88;;;13.81;36.57
51321;BME280;38732;49.556;6.286;2023-04-05T10:07:21;100122.09;;;13.86;36.65
51321;BME280;38732;49.556;6.286;2023-04-05T10:09:49;100128.09;;;14.03;36.86
51321;BME280;38732;49.556;6.286;2023-04-05T10:12:26;100119.28;;;14.38;36.75
51321;BME280;38732;49.556;6.286;2023-04-05T10:14:55;100122.84;;;14.11;37.06
51321;BME280;38732;49.556;6.286;2023-04-05T10:17:27;100119.50;;;13.80;36.98
51321;BME280;38732;49.556;6.286;2023-04-05T10:20:14;100120.41;;;13.54;38.79
51321;BME280;38732;49.556;6.286;2023-04-05T10:23:08;100121.25;;;13.69;39.00
51321;BME280;38732;49.556;6.286;2023-04-05T10:25:52;100127.34;;;13.58;39.51
51321;BME280;38732;49.556;6.286;2023-04-05T10:28:36;100116.97;;;13.54;38.33
51321;BME280;38732;49.556;6.286;2023-04-05T10:33:39;100116.97;;;13.46;38.95
51321;BME280;38732;49.556;6.286;2023-04-05T10:39:03;100109.88;;;14.13;37.74
51321;BME280;38732;49.556;6.286;2023-04-05T10:41:41;100102.84;;;14.30;38.48
51321;BME280;38732;49.556;6.286;2023-04-05T10:44:14;100103.81;;;14.12;37.51
51321;BME280;38732;49.556;6.286;2023-04-05T10:46:44;100107.38;;;13.87;35.69
51321;BME280;38732;49.556;6.286;2023-04-05T10:49:21;100100.16;;;14.58;36.91
51321;BME280;38732;49.556;6.286;2023-04-05T10:51:54;100098.78;;;13.52;36.65
51321;BME280;38732;49.556;6.286;2023-04-05T10:54:23;100100.47;;;13.78;37.73
51321;BME280;38732;49.556;6.286;2023-04-05T10:56:52;100095.88;;;14.43;37.69
51321;BME280;38732;49.556;6.286;2023-04-05T10:59:21;100085.81;;;15.20;36.18
51321;BME280;38732;49.556;6.286;2023-04-05T11:01:50;100094.72;;;14.93;34.23
51321;BME280;38732;49.556;6.286;2023-04-05T11:04:18;100084.66;;;14.30;35.42
51321;BME280;38732;49.556;6.286;2023-04-05T11:06:47;100088.50;;;15.09;34.93
51321;BME280;38732;49.556;6.286;2023-04-05T11:09:35;100085.72;;;15.29;35.70
51321;BME280;38732;49.556;6.286;2023-04-05T11:12:04;100079.06;;;15.87;31.51
51321;BME280;38732;49.556;6.286;2023-04-05T11:14:36;100072.28;;;15.74;33.75
51321;BME280;38732;49.556;6.286;2023-04-05T11:17:23;100073.38;;;16.26;35.24
51321;BME280;38732;49.556;6.286;2023-04-05T11:20:01;100068.41;;;16.69;33.34
51321;BME280;38732;49.556;6.286;2023-04-05T11:22:30;100065.59;;;17.36;33.75
51321;BME280;38732;49.556;6.286;2023-04-05T11:25:00;100054.28;;;17.82;30.13
51321;BME280;38732;49.556;6.286;2023-04-05T11:27:33;100060.41;;;17.79;29.45
51321;BME280;38732;49.556;6.286;2023-04-05T11:30:03;100069.88;;;17.40;33.88
51321;BME280;38732;49.556;6.286;2023-04-05T11:32:42;100057.13;;;18.13;30.77
51321;BME280;38732;49.556;6.286;2023-04-05T11:35:15;100057.97;;;18.91;30.59
51321;BME280;38732;49.556;6.286;2023-04-05T11:40:32;100043.38;;;19.50;27.13
51321;BME280;38732;49.556;6.286;2023-04-05T11:43:10;100034.06;;;20.30;25.69
51321;BME280;38732;49.556;6.286;2023-04-05T11:45:40;100032.41;;;20.54;25.63
51321;BME280;38732;49.556;6.286;2023-04-05T11:48:09;100038.03;;;20.72;25.67
51321;BME280;38732;49.556;6.286;2023-04-05T11:50:39;100020.78;;;21.66;23.50
51321;BME280;38732;49.556;6.286;2023-04-05T11:55:41;100014.19;;;23.12;22.07
51321;BME280;38732;49.556;6.286;2023-04-05T11:58:20;100025.88;;;22.84;24.07
51321;BME280;38732;49.556;6.286;2023-04-05T12:00:58;100016.69;;;23.94;22.70
51321;BME280;38732;49.556;6.286;2023-04-05T12:03:27;100019.47;;;23.51;22.46
51321;BME280;38732;49.556;6.286;2023-04-05T12:05:57;100003.34;;;23.59;23.08
51321;BME280;38732;49.556;6.286;2023-04-05T12:08:38;100008.50;;;24.00;21.47
51321;BME280;38732;49.556;6.286;2023-04-05T12:11:07;100002.91;;;24.44;21.64
51321;BME280;38732;49.556;6.286;2023-04-05T12:13:37;100003.25;;;25.42;19.45
51321;BME280;38732;49.556;6.286;2023-04-05T12:16:07;100004.25;;;24.52;28.03
51321;BME280;38732;49.556;6.286;2023-04-05T12:18:36;99997.03;;;24.56;23.84
51321;BME280;38732;49.556;6.286;2023-04-05T12:21:08;100000.31;;;24.79;24.50
51321;BME280;38732;49.556;6.286;2023-04-05T12:23:36;99993.25;;;24.62;20.79
51321;BME280;38732;49.556;6.286;2023-04-05T12:26:07;99992.63;;;23.82;24.47
51321;BME280;38732;49.556;6.286;2023-04-05T12:28:57;99993.56;;;24.73;24.67
51321;BME280;38732;49.556;6.286;2023-04-05T12:31:42;99978.69;;;26.05;18.81
51321;BME280;38732;49.556;6.286;2023-04-05T12:34:12;99984.25;;;25.18;20.66
51321;BME280;38732;49.556;6.286;2023-04-05T12:36:44;99975.66;;;25.30;26.05
51321;BME280;38732;49.556;6.286;2023-04-05T12:39:15;99968.53;;;25.32;20.82
51321;BME280;38732;49.556;6.286;2023-04-05T12:41:43;99961.59;;;25.79;19.26
51321;BME280;38732;49.556;6.286;2023-04-05T12:44:15;99965.41;;;25.57;19.54
51321;BME280;38732;49.556;6.286;2023-04-05T12:46:45;99965.72;;;26.00;22.21
51321;BME280;38732;49.556;6.286;2023-04-05T12:49:15;99969.03;;;26.20;19.07
51321;BME280;38732;49.556;6.286;2023-04-05T12:51:45;99965.28;;;25.76;18.61
51321;BME280;38732;49.556;6.286;2023-04-05T12:54:20;99962.50;;;26.57;17.53
51321;BME280;38732;49.556;6.286;2023-04-05T12:56:49;99959.88;;;25.46;22.09
51321;BME280;38732;49.556;6.286;2023-04-05T12:59:18;99954.63;;;26.72;22.07
51321;BME280;38732;49.556;6.286;2023-04-05T13:01:46;99953.72;;;26.57;20.84
51321;BME280;38732;49.556;6.286;2023-04-05T13:04:14;99944.78;;;26.88;18.49
51321;BME280;38732;49.556;6.286;2023-04-05T13:06:45;99948.63;;;26.54;21.42
51321;BME280;38732;49.556;6.286;2023-04-05T13:09:13;99942.88;;;27.20;22.37
51321;BME280;38732;49.556;6.286;2023-04-05T13:11:41;99936.75;;;26.13;23.34
51321;BME280;38732;49.556;6.286;2023-04-05T13:14:10;99939.69;;;26.85;19.85
51321;BME280;38732;49.556;6.286;2023-04-05T13:16:38;99930.19;;;26.66;24.00
51321;BME280;38732;49.556;6.286;2023-04-05T13:19:06;99931.31;;;27.50;22.34
51321;BME280;38732;49.556;6.286;2023-04-05T13:21:34;99928.72;;;27.63;21.26
51321;BME280;38732;49.556;6.286;2023-04-05T13:24:03;99917.13;;;28.47;19.29
51321;BME280;38732;49.556;6.286;2023-04-05T13:26:31;99926.59;;;27.26;21.31